| time (UTC) | temp F | wind direction | speed MPH | gust MPH | rain 1hr in | rain 24hr in | rain mn in | humidity % | barometer mb |
| 20260505183435 | 85 | 217 | 7.0 | 18.0 | 0.00 | 0.00 | 0.00 | 35 | 1008.5 |
| 20260505182935 | 85 | 59 | 3.0 | 16.0 | 0.00 | 0.00 | 0.00 | 35 | 1008.5 |
| 20260505182435 | 85 | 154 | 9.0 | 23.0 | 0.00 | 0.00 | 0.00 | 37 | 1008.5 |
| 20260505181941 | 85 | 160 | 3.0 | 8.0 | 0.00 | 0.00 | 0.00 | 36 | 1008.7 |
| 20260505181432 | 85 | 178 | 1.0 | 12.0 | 0.00 | 0.00 | 0.00 | 35 | 1008.8 |
| 20260505180935 | 85 | 190 | 4.0 | 15.0 | 0.00 | 0.00 | 0.00 | 36 | 1008.7 |
| 20260505180433 | 85 | 159 | 3.0 | 13.0 | 0.00 | 0.00 | 0.00 | 36 | 1008.9 |
| 20260505175932 | 86 | 227 | 6.0 | 5.0 | 0.00 | 0.00 | 0.00 | 37 | 1009.0 |
| 20260505175432 | 84 | 205 | 4.0 | 14.0 | 0.00 | 0.00 | 0.00 | 37 | 1009.0 |
| 20260505174932 | 84 | 217 | 1.0 | 14.0 | 0.00 | 0.00 | 0.00 | 38 | 1009.0 |
| 20260505174432 | 84 | 167 | 9.0 | 16.0 | 0.00 | 0.00 | 0.00 | 37 | 1008.9 |
| 20260505173938 | 84 | 107 | 3.0 | 15.0 | 0.00 | 0.00 | 0.00 | 40 | 1009.1 |
| 20260505173438 | 85 | 120 | 1.0 | 6.0 | 0.00 | 0.00 | 0.00 | 38 | 1009.2 |
| 20260505172931 | 85 | 200 | 3.0 | 12.0 | 0.00 | 0.00 | 0.00 | 39 | 1009.3 |
| 20260505172434 | 85 | 163 | 7.0 | 11.0 | 0.00 | 0.00 | 0.00 | 39 | 1009.1 |
| 20260505171935 | 85 | 180 | 3.0 | 6.0 | 0.00 | 0.00 | 0.00 | 40 | 1009.2 |
| 20260505171433 | 85 | 142 | 3.0 | 6.0 | 0.00 | 0.00 | 0.00 | 38 | 1009.3 |
| 20260505170941 | 84 | 181 | 6.0 | 13.0 | 0.00 | 0.00 | 0.00 | 38 | 1009.3 |
| 20260505170438 | 83 | 137 | 6.0 | 11.0 | 0.00 | 0.00 | 0.00 | 40 | 1009.3 |
| 20260505165932 | 84 | 239 | 3.0 | 6.0 | 0.00 | 0.00 | 0.00 | 40 | 1009.4 |
| 20260505165434 | 82 | 219 | 3.0 | 14.0 | 0.00 | 0.00 | 0.00 | 42 | 1009.3 |
| 20260505164932 | 81 | 215 | 15.0 | 16.0 | 0.00 | 0.00 | 0.00 | 40 | 1009.4 |
| 20260505164432 | 83 | 201 | 10.0 | 12.0 | 0.00 | 0.00 | 0.00 | 39 | 1009.5 |
| 20260505163935 | 82 | 178 | 1.0 | 10.0 | 0.00 | 0.00 | 0.00 | 40 | 1009.4 |
| 20260505163432 | 83 | 223 | 1.0 | 9.0 | 0.00 | 0.00 | 0.00 | 40 | 1009.6 |
| 20260505162932 | 82 | 186 | 1.0 | 13.0 | 0.00 | 0.00 | 0.00 | 41 | 1009.7 |
| 20260505162432 | 82 | 155 | 10.0 | 11.0 | 0.00 | 0.00 | 0.00 | 39 | 1009.7 |
| 20260505161935 | 83 | 124 | 1.0 | 6.0 | 0.00 | 0.00 | 0.00 | 41 | 1009.6 |
| 20260505161431 | 82 | 153 | 3.0 | 10.0 | 0.00 | 0.00 | 0.00 | 41 | 1009.7 |
| 20260505160931 | 82 | 160 | 7.0 | 7.0 | 0.00 | 0.00 | 0.00 | 42 | 1009.8 |
| 20260505160438 | 82 | 109 | 1.0 | 9.0 | 0.00 | 0.00 | 0.00 | 41 | 1009.9 |
| 20260505152932 | 79 | 174 | 9.0 | 12.0 | 0.00 | 0.00 | 0.00 | 45 | 1010.1 |
| 20260505152438 | 79 | 167 | 12.0 | 10.0 | 0.00 | 0.00 | 0.00 | 45 | 1010.2 |
| 20260505151933 | 78 | 105 | 3.0 | 14.0 | 0.00 | 0.00 | 0.00 | 47 | 1010.2 |
| 20260505151434 | 79 | 157 | 12.0 | 11.0 | 0.00 | 0.00 | 0.00 | 47 | 1010.1 |
| 20260505150931 | 79 | 160 | 6.0 | 11.0 | 0.00 | 0.00 | 0.00 | 49 | 1010.0 |
| 20260505150434 | 78 | 148 | 9.0 | 14.0 | 0.00 | 0.00 | 0.00 | 45 | 1010.0 |
| 20260505140432 | 75 | 176 | 4.0 | 6.0 | 0.00 | 0.00 | 0.00 | 49 | 1010.6 |
| 20260505124937 | 70 | 232 | 0.0 | 6.0 | 0.00 | 0.00 | 0.00 | 55 | 1010.6 |
| 20260505124431 | 70 | 161 | 3.0 | 5.0 | 0.00 | 0.00 | 0.00 | 55 | 1010.6 |
| 20260505123940 | 69 | 208 | 4.0 | 9.0 | 0.00 | 0.00 | 0.00 | 54 | 1010.6 |
| 20260505123431 | 69 | 199 | 4.0 | 9.0 | 0.00 | 0.00 | 0.00 | 55 | 1010.5 |
| 20260505122931 | 69 | 169 | 15.0 | 10.0 | 0.00 | 0.00 | 0.00 | 59 | 1010.6 |
| 20260505122434 | 68 | 169 | 3.0 | 5.0 | 0.00 | 0.00 | 0.00 | 58 | 1010.6 |
| 20260505121932 | 68 | 173 | 0.0 | 6.0 | 0.00 | 0.00 | 0.00 | 60 | 1010.6 |
| 20260505121435 | 67 | 163 | 1.0 | 8.0 | 0.00 | 0.00 | 0.00 | 61 | 1010.6 |
| 20260505120931 | 66 | 176 | 0.0 | 5.0 | 0.00 | 0.00 | 0.00 | 63 | 1010.7 |
| 20260505120434 | 66 | 323 | 0.0 | 4.0 | 0.00 | 0.00 | 0.00 | 65 | 1010.7 |
| 20260505115935 | 65 | 200 | 3.0 | 7.0 | 0.00 | 0.00 | 0.00 | 67 | 1010.6 |
| 20260505115435 | 64 | 156 | 7.0 | 5.0 | 0.00 | 0.00 | 0.00 | 68 | 1010.6 |
| 20260505114934 | 63 | 201 | 0.0 | 3.0 | 0.00 | 0.00 | 0.00 | 71 | 1010.6 |
| 20260505114435 | 61 | 167 | 1.0 | 4.0 | 0.00 | 0.00 | 0.00 | 75 | 1010.5 |
| 20260505113934 | 60 | 162 | 7.0 | 5.0 | 0.00 | 0.00 | 0.00 | 78 | 1010.4 |
| 20260505113431 | 59 | 148 | 0.0 | 1.0 | 0.00 | 0.00 | 0.00 | 80 | 1010.3 |
| 20260505112938 | 58 | 148 | 0.0 | 1.0 | 0.00 | 0.00 | 0.00 | 84 | 1010.3 |
| 20260505112434 | 57 | 148 | 0.0 | 1.0 | 0.00 | 0.00 | 0.00 | 84 | 1010.4 |
| 20260505111935 | 57 | 148 | 1.0 | 1.0 | 0.00 | 0.00 | 0.00 | 83 | 1010.4 |
| 20260505111432 | 57 | 148 | 0.0 | 1.0 | 0.00 | 0.00 | 0.00 | 83 | 1010.4 |
| 20260505110935 | 56 | 148 | 0.0 | 0.0 | 0.00 | 0.00 | 0.00 | 84 | 1010.3 |
| 20260505110434 | 56 | 148 | 0.0 | 0.0 | 0.00 | 0.00 | 0.00 | 84 | 1010.3 |
| 20260505101934 | 55 | 148 | 0.0 | 0.0 | 0.00 | 0.00 | 0.00 | 83 | 1010.1 |
| 20260505101435 | 56 | 148 | 0.0 | 0.0 | 0.00 | 0.00 | 0.00 | 83 | 1010.0 |
| 20260505100932 | 56 | 148 | 0.0 | 0.0 | 0.00 | 0.00 | 0.00 | 83 | 1009.9 |
| 20260505100435 | 56 | 148 | 0.0 | 0.0 | 0.00 | 0.00 | 0.00 | 83 | 1009.8 |
| 20260505095934 | 56 | 148 | 0.0 | 0.0 | 0.00 | 0.00 | 0.00 | 83 | 1009.7 |
| 20260505095438 | 56 | 148 | 0.0 | 0.0 | 0.00 | 0.00 | 0.00 | 83 | 1009.7 |
| 20260505094935 | 56 | 148 | 0.0 | 1.0 | 0.00 | 0.00 | 0.00 | 82 | 1009.8 |
| 20260505094438 | 56 | 148 | 1.0 | 2.0 | 0.00 | 0.00 | 0.00 | 83 | 1009.7 |
| 20260505093931 | 56 | 148 | 1.0 | 2.0 | 0.00 | 0.00 | 0.00 | 81 | 1009.7 |
| 20260505093434 | 56 | 148 | 0.0 | 1.0 | 0.00 | 0.00 | 0.00 | 81 | 1009.8 |
| 20260505092935 | 56 | 148 | 0.0 | 1.0 | 0.00 | 0.00 | 0.00 | 81 | 1009.8 |
| 20260505092432 | 56 | 148 | 0.0 | 2.0 | 0.00 | 0.00 | 0.00 | 81 | 1009.6 |
| 20260505091932 | 56 | 148 | 0.0 | 2.0 | 0.00 | 0.00 | 0.00 | 80 | 1009.6 |
| 20260505091431 | 56 | 148 | 0.0 | 0.0 | 0.00 | 0.00 | 0.00 | 81 | 1009.6 |
| 20260505090931 | 56 | 148 | 0.0 | 0.0 | 0.00 | 0.00 | 0.00 | 82 | 1009.6 |
| 20260505090431 | 56 | 148 | 0.0 | 0.0 | 0.00 | 0.00 | 0.00 | 81 | 1009.6 |
| 20260505085932 | 56 | 148 | 0.0 | 0.0 | 0.00 | 0.00 | 0.00 | 80 | 1009.6 |
| 20260505085435 | 57 | 148 | 0.0 | 0.0 | 0.00 | 0.00 | 0.00 | 80 | 1009.7 |
| 20260505084937 | 57 | 148 | 0.0 | 1.0 | 0.00 | 0.00 | 0.00 | 80 | 1009.7 |
| 20260505084434 | 57 | 148 | 0.0 | 1.0 | 0.00 | 0.00 | 0.00 | 78 | 1009.6 |
| 20260505083934 | 58 | 148 | 0.0 | 0.0 | 0.00 | 0.00 | 0.00 | 77 | 1009.6 |
| 20260505083431 | 58 | 148 | 0.0 | 0.0 | 0.00 | 0.00 | 0.00 | 77 | 1009.7 |
| 20260505082938 | 58 | 148 | 0.0 | 2.0 | 0.00 | 0.00 | 0.00 | 76 | 1009.6 |
| 20260505082435 | 58 | 148 | 0.0 | 0.0 | 0.00 | 0.00 | 0.00 | 76 | 1009.7 |
| 20260505081935 | 58 | 148 | 0.0 | 2.0 | 0.00 | 0.00 | 0.00 | 76 | 1009.7 |
| 20260505081434 | 58 | 163 | 0.0 | 3.0 | 0.00 | 0.00 | 0.00 | 76 | 1009.8 |
| 20260505080932 | 59 | 167 | 0.0 | 0.0 | 0.00 | 0.00 | 0.00 | 74 | 1009.8 |
| 20260505080435 | 60 | 167 | 0.0 | 2.0 | 0.00 | 0.00 | 0.00 | 73 | 1009.7 |
| 20260505075934 | 59 | 157 | 1.0 | 2.0 | 0.00 | 0.00 | 0.00 | 73 | 1009.8 |
| 20260505075437 | 59 | 189 | 1.0 | 1.0 | 0.00 | 0.00 | 0.00 | 73 | 1009.8 |
| 20260505074931 | 58 | 198 | 0.0 | 1.0 | 0.00 | 0.00 | 0.00 | 74 | 1009.7 |
| 20260505074432 | 58 | 184 | 1.0 | 1.0 | 0.00 | 0.00 | 0.00 | 75 | 1009.6 |
| 20260505073934 | 57 | 199 | 0.0 | 2.0 | 0.00 | 0.00 | 0.00 | 76 | 1009.7 |
| 20260505073431 | 57 | 199 | 0.0 | 1.0 | 0.00 | 0.00 | 0.00 | 76 | 1009.6 |
| 20260505072937 | 57 | 199 | 0.0 | 0.0 | 0.00 | 0.00 | 0.00 | 76 | 1009.6 |
| 20260505072438 | 57 | 199 | 0.0 | 0.0 | 0.00 | 0.00 | 0.00 | 76 | 1009.6 |
| 20260505071931 | 57 | 199 | 0.0 | 1.0 | 0.00 | 0.00 | 0.00 | 76 | 1009.6 |
| 20260505071434 | 57 | 199 | 0.0 | 2.0 | 0.00 | 0.00 | 0.00 | 75 | 1009.6 |
| 20260505070931 | 57 | 199 | 0.0 | 0.0 | 0.00 | 0.00 | 0.00 | 73 | 1009.7 |
| 20260505070434 | 58 | 199 | 0.0 | 2.0 | 0.00 | 0.00 | 0.00 | 73 | 1009.6 |
| 20260505065931 | 58 | 238 | 0.0 | 0.0 | 0.00 | 0.00 | 0.00 | 73 | 1009.6 |
| 20260505065435 | 58 | 238 | 0.0 | 4.0 | 0.00 | 0.00 | 0.00 | 72 | 1009.5 |
| 20260505064931 | 59 | 167 | 0.0 | 4.0 | 0.00 | 0.00 | 0.00 | 72 | 1009.4 |
| 20260505064435 | 59 | 192 | 3.0 | 5.0 | 0.00 | 0.00 | 0.00 | 71 | 1009.4 |
| 20260505063935 | 59 | 169 | 1.0 | 4.0 | 0.00 | 0.00 | 0.00 | 71 | 1009.4 |
| 20260505063431 | 58 | 156 | 3.0 | 3.0 | 0.00 | 0.00 | 0.00 | 71 | 1009.5 |
| 20260505062933 | 58 | 166 | 0.0 | 3.0 | 0.00 | 0.00 | 0.00 | 71 | 1009.6 |
| 20260505062434 | 58 | 159 | 3.0 | 2.0 | 0.00 | 0.00 | 0.00 | 72 | 1009.6 |
| 20260505061935 | 58 | 169 | 0.0 | 2.0 | 0.00 | 0.00 | 0.00 | 72 | 1009.6 |
| 20260505061431 | 58 | 209 | 0.0 | 1.0 | 0.00 | 0.00 | 0.00 | 71 | 1009.6 |
| 20260505060931 | 58 | 228 | 0.0 | 1.0 | 0.00 | 0.00 | 0.00 | 72 | 1009.6 |
| 20260505060431 | 58 | 209 | 1.0 | 1.0 | 0.00 | 0.00 | 0.00 | 72 | 1009.6 |
| 20260505055934 | 58 | 208 | 0.0 | 1.0 | 0.00 | 0.00 | 0.00 | 72 | 1009.6 |
| 20260505055431 | 58 | 198 | 0.0 | 1.0 | 0.00 | 0.00 | 0.00 | 71 | 1009.6 |
| 20260505054935 | 58 | 184 | 0.0 | 3.0 | 0.00 | 0.00 | 0.00 | 71 | 1009.7 |
| 20260505054434 | 58 | 188 | 0.0 | 1.0 | 0.00 | 0.00 | 0.00 | 71 | 1009.6 |
| 20260505053933 | 58 | 188 | 0.0 | 2.0 | 0.00 | 0.00 | 0.00 | 71 | 1009.7 |
| 20260505053436 | 58 | 148 | 0.0 | 2.0 | 0.00 | 0.00 | 0.00 | 71 | 1009.7 |
| 20260505052931 | 58 | 164 | 0.0 | 4.0 | 0.00 | 0.00 | 0.00 | 71 | 1009.7 |
| 20260505052431 | 59 | 210 | 0.0 | 3.0 | 0.00 | 0.00 | 0.00 | 71 | 1009.8 |
| 20260505051932 | 59 | 169 | 0.0 | 2.0 | 0.00 | 0.00 | 0.00 | 71 | 1009.8 |
| 20260505051434 | 59 | 148 | 1.0 | 2.0 | 0.00 | 0.00 | 0.00 | 70 | 1009.8 |
| 20260505050932 | 59 | 146 | 0.0 | 2.0 | 0.00 | 0.00 | 0.00 | 70 | 1009.7 |
| 20260505050432 | 59 | 175 | 0.0 | 3.0 | 0.00 | 0.00 | 0.00 | 69 | 1009.8 |
| 20260505041432 | 60 | 158 | 1.0 | 6.0 | 0.00 | 0.00 | 0.00 | 66 | 1009.8 |
| 20260505040931 | 60 | 157 | 0.0 | 5.0 | 0.00 | 0.00 | 0.00 | 65 | 1009.8 |
| 20260505040438 | 60 | 148 | 0.0 | 7.0 | 0.00 | 0.00 | 0.00 | 65 | 1009.7 |
| 20260505035934 | 61 | 165 | 3.0 | 4.0 | 0.00 | 0.00 | 0.00 | 64 | 1009.8 |
| 20260505035434 | 61 | 190 | 0.0 | 6.0 | 0.00 | 0.00 | 0.00 | 64 | 1009.8 |
| 20260505034932 | 61 | 175 | 3.0 | 6.0 | 0.00 | 0.00 | 0.00 | 63 | 1009.8 |
| 20260505034434 | 61 | 166 | 7.0 | 8.0 | 0.00 | 0.00 | 0.00 | 63 | 1009.8 |
| 20260505033934 | 61 | 161 | 0.0 | 6.0 | 0.00 | 0.00 | 0.00 | 62 | 1009.8 |
| 20260505033437 | 61 | 162 | 3.0 | 4.0 | 0.00 | 0.00 | 0.00 | 62 | 1009.9 |
| 20260505032931 | 61 | 157 | 3.0 | 6.0 | 0.00 | 0.00 | 0.00 | 61 | 1009.8 |
| 20260505032440 | 61 | 173 | 1.0 | 6.0 | 0.00 | 0.00 | 0.00 | 61 | 1009.9 |
| 20260505031937 | 62 | 264 | 0.0 | 6.0 | 0.00 | 0.00 | 0.00 | 60 | 1009.9 |
| 20260505031437 | 62 | 150 | 1.0 | 6.0 | 0.00 | 0.00 | 0.00 | 59 | 1010.1 |
| 20260505030935 | 62 | 173 | 0.0 | 4.0 | 0.00 | 0.00 | 0.00 | 59 | 1010.1 |
| 20260505030432 | 62 | 168 | 1.0 | 5.0 | 0.00 | 0.00 | 0.00 | 58 | 1010.1 |
| 20260505025931 | 62 | 173 | 0.0 | 4.0 | 0.00 | 0.00 | 0.00 | 57 | 1010.1 |
| 20260505025434 | 62 | 201 | 0.0 | 6.0 | 0.00 | 0.00 | 0.00 | 57 | 1010.2 |
| 20260505024935 | 63 | 157 | 3.0 | 5.0 | 0.00 | 0.00 | 0.00 | 56 | 1010.1 |
| 20260505024437 | 63 | 211 | 0.0 | 6.0 | 0.00 | 0.00 | 0.00 | 55 | 1010.1 |
| 20260505023934 | 63 | 178 | 4.0 | 7.0 | 0.00 | 0.00 | 0.00 | 54 | 1010.1 |
| 20260505023432 | 63 | 160 | 0.0 | 8.0 | 0.00 | 0.00 | 0.00 | 54 | 1010.1 |
| 20260505022937 | 64 | 161 | 1.0 | 6.0 | 0.00 | 0.00 | 0.00 | 53 | 1010.2 |
| 20260505022432 | 64 | 186 | 4.0 | 10.0 | 0.00 | 0.00 | 0.00 | 52 | 1010.1 |
| 20260505021937 | 64 | 151 | 3.0 | 7.0 | 0.00 | 0.00 | 0.00 | 52 | 1010.2 |
| 20260505021435 | 64 | 169 | 13.0 | 9.0 | 0.00 | 0.00 | 0.00 | 50 | 1010.1 |
| 20260505020931 | 64 | 160 | 0.0 | 6.0 | 0.00 | 0.00 | 0.00 | 50 | 1010.2 |
| 20260505020435 | 64 | 165 | 7.0 | 9.0 | 0.00 | 0.00 | 0.00 | 49 | 1010.2 |
| 20260505015941 | 64 | 344 | 1.0 | 5.0 | 0.00 | 0.00 | 0.00 | 50 | 1010.1 |
| 20260505015434 | 65 | 153 | 0.0 | 7.0 | 0.00 | 0.00 | 0.00 | 48 | 1010.1 |
| 20260505014932 | 65 | 197 | 1.0 | 5.0 | 0.00 | 0.00 | 0.00 | 48 | 1010.1 |
| 20260505014431 | 65 | 165 | 3.0 | 8.0 | 0.00 | 0.00 | 0.00 | 47 | 1010.1 |
| 20260505013931 | 65 | 165 | 1.0 | 5.0 | 0.00 | 0.00 | 0.00 | 48 | 1010.1 |
| 20260505013437 | 64 | 165 | 6.0 | 4.0 | 0.00 | 0.00 | 0.00 | 48 | 1010.0 |
| 20260505012932 | 65 | 164 | 1.0 | 4.0 | 0.00 | 0.00 | 0.00 | 50 | 1010.0 |
| 20260505012431 | 64 | 170 | 3.0 | 9.0 | 0.00 | 0.00 | 0.00 | 48 | 1009.9 |
| 20260505011936 | 64 | 186 | 6.0 | 4.0 | 0.00 | 0.00 | 0.00 | 49 | 1009.8 |
| 20260505011431 | 64 | 114 | 0.0 | 4.0 | 0.00 | 0.00 | 0.00 | 49 | 1009.8 |
| 20260505010931 | 64 | 165 | 0.0 | 2.0 | 0.00 | 0.00 | 0.00 | 51 | 1009.7 |
| 20260505010431 | 64 | 163 | 0.0 | 2.0 | 0.00 | 0.00 | 0.00 | 49 | 1009.6 |
| 20260505005935 | 65 | 178 | 0.0 | 4.0 | 0.00 | 0.00 | 0.00 | 48 | 1009.5 |
| 20260505005435 | 65 | 163 | 1.0 | 4.0 | 0.00 | 0.00 | 0.00 | 49 | 1009.5 |
| 20260505004935 | 65 | 165 | 1.0 | 4.0 | 0.00 | 0.00 | 0.00 | 51 | 1009.5 |
| 20260505004438 | 65 | 161 | 1.0 | 3.0 | 0.00 | 0.00 | 0.00 | 48 | 1009.4 |
| 20260505003934 | 66 | 163 | 0.0 | 2.0 | 0.00 | 0.00 | 0.00 | 47 | 1009.5 |
| 20260505003435 | 66 | 163 | 0.0 | 5.0 | 0.00 | 0.00 | 0.00 | 45 | 1009.4 |
| 20260505002940 | 67 | 153 | 0.0 | 4.0 | 0.00 | 0.00 | 0.00 | 45 | 1009.3 |
| 20260505002434 | 67 | 158 | 3.0 | 5.0 | 0.00 | 0.00 | 0.00 | 44 | 1009.3 |
| 20260505001931 | 68 | 169 | 1.0 | 6.0 | 0.00 | 0.00 | 0.00 | 41 | 1009.2 |
| 20260505001435 | 68 | 158 | 4.0 | 4.0 | 0.00 | 0.00 | 0.00 | 42 | 1009.2 |
| 20260505000932 | 68 | 180 | 3.0 | 3.0 | 0.00 | 0.00 | 0.00 | 41 | 1009.2 |
| 20260505000431 | 68 | 161 | 1.0 | 6.0 | 0.00 | 0.00 | 0.00 | 41 | 1009.1 |
| 20260504235934 | 68 | 156 | 1.0 | 2.0 | 0.00 | 0.00 | 0.00 | 41 | 1009.1 |
| 20260504235437 | 69 | 156 | 1.0 | 2.0 | 0.00 | 0.00 | 0.00 | 40 | 1009.1 |
| 20260504234931 | 70 | 213 | 1.0 | 4.0 | 0.00 | 0.00 | 0.00 | 38 | 1009.0 |
| 20260504234437 | 70 | 150 | 1.0 | 4.0 | 0.00 | 0.00 | 0.00 | 38 | 1009.0 |
| 20260504233938 | 70 | 163 | 1.0 | 7.0 | 0.00 | 0.00 | 0.00 | 38 | 1008.8 |
| 20260504233432 | 70 | 158 | 9.0 | 7.0 | 0.00 | 0.00 | 0.00 | 38 | 1008.8 |
| 20260504232934 | 71 | 180 | 3.0 | 7.0 | 0.00 | 0.00 | 0.00 | 37 | 1008.7 |
| 20260504232434 | 71 | 138 | 4.0 | 12.0 | 0.00 | 0.00 | 0.00 | 36 | 1008.8 |
| 20260504231937 | 71 | 176 | 7.0 | 8.0 | 0.00 | 0.00 | 0.00 | 36 | 1008.8 |
| 20260504231434 | 71 | 171 | 3.0 | 11.0 | 0.00 | 0.00 | 0.00 | 36 | 1008.7 |
| 20260504230937 | 71 | 202 | 4.0 | 9.0 | 0.00 | 0.00 | 0.00 | 36 | 1008.6 |
| 20260504230434 | 71 | 206 | 1.0 | 9.0 | 0.00 | 0.00 | 0.00 | 36 | 1008.7 |
| 20260504225931 | 72 | 177 | 1.0 | 11.0 | 0.00 | 0.00 | 0.00 | 35 | 1008.7 |
| 20260504225438 | 72 | 280 | 1.0 | 9.0 | 0.00 | 0.00 | 0.00 | 35 | 1008.7 |
| 20260504224935 | 72 | 170 | 3.0 | 8.0 | 0.00 | 0.00 | 0.00 | 35 | 1008.7 |
| 20260504224437 | 72 | 161 | 1.0 | 6.0 | 0.00 | 0.00 | 0.00 | 36 | 1008.7 |
| 20260504223931 | 72 | 215 | 1.0 | 5.0 | 0.00 | 0.00 | 0.00 | 35 | 1008.7 |
| 20260504223438 | 72 | 165 | 6.0 | 7.0 | 0.00 | 0.00 | 0.00 | 34 | 1008.8 |
| 20260504222934 | 72 | 13 | 4.0 | 7.0 | 0.00 | 0.00 | 0.00 | 36 | 1008.8 |
| 20260504222431 | 73 | 258 | 3.0 | 9.0 | 0.00 | 0.00 | 0.00 | 35 | 1008.8 |
| 20260504221937 | 73 | 182 | 1.0 | 10.0 | 0.00 | 0.00 | 0.00 | 35 | 1008.7 |
| 20260504221431 | 73 | 279 | 4.0 | 14.0 | 0.00 | 0.00 | 0.00 | 34 | 1008.7 |
| 20260504220934 | 73 | 192 | 6.0 | 10.0 | 0.00 | 0.00 | 0.00 | 34 | 1008.7 |
| 20260504220435 | 73 | 152 | 3.0 | 7.0 | 0.00 | 0.00 | 0.00 | 34 | 1008.8 |
| 20260504215934 | 73 | 166 | 4.0 | 10.0 | 0.00 | 0.00 | 0.00 | 34 | 1008.8 |
| 20260504215431 | 73 | 189 | 1.0 | 13.0 | 0.00 | 0.00 | 0.00 | 35 | 1008.9 |
| 20260504214932 | 74 | 196 | 3.0 | 6.0 | 0.00 | 0.00 | 0.00 | 35 | 1008.9 |
| 20260504214437 | 73 | 153 | 4.0 | 10.0 | 0.00 | 0.00 | 0.00 | 34 | 1009.0 |
| 20260504213931 | 73 | 150 | 4.0 | 6.0 | 0.00 | 0.00 | 0.00 | 35 | 1009.0 |
| 20260504213431 | 73 | 188 | 3.0 | 11.0 | 0.00 | 0.00 | 0.00 | 35 | 1009.1 |
| 20260504212934 | 73 | 163 | 6.0 | 10.0 | 0.00 | 0.00 | 0.00 | 33 | 1009.1 |
| 20260504212431 | 75 | 248 | 1.0 | 6.0 | 0.00 | 0.00 | 0.00 | 33 | 1008.9 |
| 20260504211937 | 74 | 171 | 1.0 | 6.0 | 0.00 | 0.00 | 0.00 | 33 | 1009.0 |
| 20260504211434 | 74 | 319 | 3.0 | 6.0 | 0.00 | 0.00 | 0.00 | 34 | 1009.1 |
| 20260504210938 | 74 | 221 | 0.0 | 7.0 | 0.00 | 0.00 | 0.00 | 33 | 1009.1 |
| 20260504210437 | 74 | 235 | 6.0 | 7.0 | 0.00 | 0.00 | 0.00 | 33 | 1009.2 |
| 20260504205931 | 74 | 295 | 3.0 | 14.0 | 0.00 | 0.00 | 0.00 | 34 | 1009.1 |
| 20260504205431 | 74 | 173 | 0.0 | 11.0 | 0.00 | 0.00 | 0.00 | 32 | 1009.2 |
| 20260504204934 | 74 | 185 | 1.0 | 7.0 | 0.00 | 0.00 | 0.00 | 33 | 1009.1 |
| 20260504204434 | 73 | 164 | 3.0 | 12.0 | 0.00 | 0.00 | 0.00 | 34 | 1009.1 |
| 20260504203934 | 74 | 194 | 1.0 | 7.0 | 0.00 | 0.00 | 0.00 | 32 | 1009.1 |
| 20260504203431 | 74 | 238 | 4.0 | 13.0 | 0.00 | 0.00 | 0.00 | 32 | 1009.2 |
| 20260504202934 | 74 | 303 | 3.0 | 5.0 | 0.00 | 0.00 | 0.00 | 32 | 1009.1 |
| 20260504202435 | 74 | 153 | 1.0 | 8.0 | 0.00 | 0.00 | 0.00 | 33 | 1009.2 |
| 20260504201935 | 74 | 223 | 4.0 | 10.0 | 0.00 | 0.00 | 0.00 | 32 | 1009.1 |
| 20260504201435 | 75 | 198 | 3.0 | 11.0 | 0.00 | 0.00 | 0.00 | 32 | 1009.1 |
| 20260504200932 | 74 | 192 | 1.0 | 9.0 | 0.00 | 0.00 | 0.00 | 34 | 1009.1 |
| 20260504200441 | 74 | 157 | 7.0 | 18.0 | 0.00 | 0.00 | 0.00 | 31 | 1009.1 |
| 20260504195934 | 74 | 165 | 7.0 | 9.0 | 0.00 | 0.00 | 0.00 | 33 | 1009.2 |
| 20260504195432 | 74 | 274 | 1.0 | 15.0 | 0.00 | 0.00 | 0.00 | 34 | 1009.2 |
| 20260504194934 | 73 | 161 | 10.0 | 14.0 | 0.00 | 0.00 | 0.00 | 33 | 1009.3 |
| 20260504194431 | 73 | 150 | 4.0 | 16.0 | 0.00 | 0.00 | 0.00 | 30 | 1009.3 |
| 20260504193931 | 75 | 183 | 4.0 | 11.0 | 0.00 | 0.00 | 0.00 | 33 | 1009.4 |
| 20260504193431 | 74 | 173 | 1.0 | 11.0 | 0.00 | 0.00 | 0.00 | 33 | 1009.4 |
| 20260504192940 | 73 | 130 | 4.0 | 14.0 | 0.00 | 0.00 | 0.00 | 32 | 1009.4 |
| 20260504192431 | 75 | 147 | 1.0 | 8.0 | 0.00 | 0.00 | 0.00 | 33 | 1009.5 |
| 20260504191931 | 74 | 145 | 7.0 | 10.0 | 0.00 | 0.00 | 0.00 | 32 | 1009.6 |
| 20260504191434 | 75 | 195 | 1.0 | 11.0 | 0.00 | 0.00 | 0.00 | 34 | 1009.7 |
| 20260504190935 | 74 | 178 | 6.0 | 12.0 | 0.00 | 0.00 | 0.00 | 32 | 1009.8 |
| 20260504190434 | 74 | 171 | 13.0 | 15.0 | 0.00 | 0.00 | 0.00 | 33 | 1009.8 |
| 20260504185938 | 73 | 163 | 21.0 | 22.0 | 0.00 | 0.00 | 0.00 | 33 | 1009.8 |
| 20260504185437 | 73 | 134 | 4.0 | 16.0 | 0.00 | 0.00 | 0.00 | 31 | 1009.9 |
| 20260504184931 | 74 | 171 | 16.0 | 13.0 | 0.00 | 0.00 | 0.00 | 36 | 1009.9 |
| 20260504184431 | 74 | 172 | 4.0 | 13.0 | 0.00 | 0.00 | 0.00 | 31 | 1010.1 |
| 20260504183932 | 74 | 155 | 9.0 | 12.0 | 0.00 | 0.00 | 0.00 | 31 | 1010.1 |